Langruth, Canada
Current Conditions -  °F | °C
As of 5:12 AM on Sunday 23 Nov 2014 (Local Time) from CYBR Reporting Station
Haze Haze  
Wind Chill: 11°   Ceiling: 300
Heat Index: 23°   Visibility: 1.5mi
Dew Point: 21°   Wind: 14mph
Humidity: 93%   Direction: 50°NE
Pressure: 29.33"   Gusts: NA
Location:  50.38°N, 98.67°W
Report Text: CYBR 231112Z 05012KT 1 1/2SM BR OVC003 M05/M06 A2933 RMK ST8 SLP955
Loading
Personal Weather Stations






























Interactive Weather Map New forecast layout! Learn more

10-Day Weather Forecast

Advertisements
Track Severe Weather on mobile